Time;durP1;ratioP1;P1;durP2;ratioP2;P2;SDS_P1;SDS_P2;PMS_P1;PMS_P2;Temp;Humidity;BMP_temperature;BMP_pressure;BME280_temperature;BME280_humidity;BME280_pressure;Samples;Min_cycle;Max_cycle;Signal;HPM_P1;HPM_P2
2023/02/20 00:01:37;;;;;;;;;;;7.60;99.90;;;;;;4993550;28;20041;-39
2023/02/20 00:04:02;;;;;;;2.67;1.60;;;7.60;99.90;;;;;;4992678;28;20318;-37
2023/02/20 00:06:28;;;;;;;3.25;1.63;;;7.60;99.90;;;;;;4995823;28;20487;-39
2023/02/20 00:08:54;;;;;;;2.05;1.40;;;7.60;99.90;;;;;;4990496;28;20069;-37
2023/02/20 00:11:20;;;;;;;1.40;1.30;;;7.60;99.90;;;;;;4991210;28;20236;-40
2023/02/20 00:13:46;;;;;;;0.95;0.95;;;7.50;99.90;;;;;;4991740;28;20033;-39
2023/02/20 00:16:12;;;;;;;2.35;2.03;;;7.50;99.90;;;;;;4992422;28;21202;-37
2023/02/20 00:18:38;;;;;;;0.60;0.60;;;7.50;99.90;;;;;;4994828;28;20041;-39
2023/02/20 00:21:05;;;;;;;1.88;1.20;;;7.50;99.90;;;;;;4994504;28;20137;-38
2023/02/20 00:23:34;;;;;;;1.60;1.40;;;7.50;99.90;;;;;;4995332;28;20036;-39
2023/02/20 00:26:00;;;;;;;1.50;1.40;;;7.50;99.90;;;;;;4994040;28;20045;-39
2023/02/20 00:28:26;;;;;;;2.05;1.20;;;7.50;99.90;;;;;;4993205;28;20041;-38
2023/02/20 00:30:51;;;;;;;3.13;1.92;;;7.50;99.90;;;;;;4992023;28;20064;-39
2023/02/20 00:33:17;;;;;;;0.93;0.88;;;7.50;99.90;;;;;;4993035;28;20026;-38
2023/02/20 00:35:43;;;;;;;1.38;1.27;;;7.50;99.90;;;;;;4990471;28;20075;-38
2023/02/20 00:38:08;;;;;;;1.25;1.05;;;7.50;99.90;;;;;;4995163;28;20063;-40
2023/02/20 00:40:34;;;;;;;1.63;1.40;;;7.50;99.90;;;;;;4996304;28;20034;-36
2023/02/20 00:42:59;;;;;;;2.33;1.50;;;7.50;99.90;;;;;;4995768;28;20507;-39
2023/02/20 00:45:25;;;;;;;3.40;1.80;;;7.50;99.90;;;;;;4993498;28;20453;-39
2023/02/20 00:47:50;;;;;;;1.67;1.20;;;7.50;99.90;;;;;;4995939;28;20152;-39
2023/02/20 00:50:17;;;;;;;2.17;1.42;;;7.40;99.90;;;;;;4995668;28;20022;-39
2023/02/20 00:52:42;;;;;;;1.85;1.25;;;7.50;99.90;;;;;;4997757;28;20513;-39
2023/02/20 00:55:08;;;;;;;1.05;1.00;;;7.50;99.90;;;;;;4997236;28;20029;-39
2023/02/20 00:57:34;;;;;;;1.95;1.33;;;7.50;99.90;;;;;;5000212;28;20026;-38
2023/02/20 01:00:00;;;;;;;2.50;1.25;;;7.50;99.90;;;;;;4998802;28;20034;-38
2023/02/20 01:02:25;;;;;;;1.25;1.23;;;7.50;99.90;;;;;;4997634;28;20116;-39
2023/02/20 01:04:52;;;;;;;1.48;1.38;;;7.50;99.90;;;;;;4994166;28;20066;-38
2023/02/20 01:07:18;;;;;;;3.58;1.45;;;7.50;99.90;;;;;;5001246;28;20133;-39
2023/02/20 01:09:43;;;;;;;2.80;1.67;;;7.50;99.90;;;;;;4996995;28;20034;-39
2023/02/20 01:12:09;;;;;;;1.23;1.20;;;7.50;99.90;;;;;;5000950;28;20080;-40
2023/02/20 01:14:35;;;;;;;2.13;1.60;;;7.40;99.90;;;;;;4999350;28;20387;-39
2023/02/20 01:17:01;;;;;;;3.25;1.42;;;7.40;99.90;;;;;;4999711;28;20550;-38
2023/02/20 01:19:27;;;;;;;1.10;1.10;;;7.40;99.90;;;;;;4998309;28;20257;-39
2023/02/20 01:21:53;;;;;;;3.28;1.58;;;7.40;99.90;;;;;;4998701;28;20190;-39
2023/02/20 01:24:19;;;;;;;1.40;1.30;;;7.40;99.90;;;;;;4996169;28;20026;-36
2023/02/20 01:26:46;;;;;;;1.38;1.20;;;7.40;99.90;;;;;;4997890;28;20034;-39
2023/02/20 01:29:12;;;;;;;1.40;1.30;;;7.40;99.90;;;;;;4998459;28;20029;-37
2023/02/20 01:31:38;;;;;;;1.10;1.00;;;7.30;99.90;;;;;;5001192;28;20037;-39
2023/02/20 01:34:05;;;;;;;2.53;2.00;;;7.30;99.90;;;;;;5073987;22;20021;-86
2023/02/20 01:36:38;;;;;;;1.52;1.40;;;7.40;99.90;;;;;;5007853;28;20046;-86
2023/02/20 01:39:03;;;;;;;1.55;1.42;;;7.30;99.90;;;;;;5009116;28;20042;-87
2023/02/20 01:41:29;;;;;;;1.55;1.45;;;7.40;99.90;;;;;;5007705;28;21001;-87
2023/02/20 01:43:57;;;;;;;2.38;1.40;;;7.40;99.90;;;;;;5013513;28;20093;-87
2023/02/20 01:46:25;;;;;;;1.63;1.53;;;7.40;99.90;;;;;;5017805;28;20038;-87
2023/02/20 01:49:06;;;;;;;2.60;1.75;;;7.40;99.90;;;;;;5014577;28;20301;-87
2023/02/20 01:51:36;;;;;;;1.65;1.50;;;7.40;99.90;;;;;;5014443;28;20128;-88
2023/02/20 01:54:06;;;;;;;1.98;1.73;;;7.40;99.90;;;;;;5012288;28;20027;-87
2023/02/20 01:56:33;;;;;;;2.72;1.38;;;7.40;99.90;;;;;;5011248;28;20018;-87
2023/02/20 01:58:59;;;;;;;3.35;1.65;;;7.40;99.90;;;;;;5015852;28;21586;-87
2023/02/20 02:01:25;;;;;;;1.17;1.08;;;7.40;99.90;;;;;;5013587;28;20046;-87
2023/02/20 02:03:58;;;;;;;2.70;2.00;;;7.40;99.90;;;;;;5012840;28;20037;-87
2023/02/20 02:06:24;;;;;;;5.97;2.10;;;7.40;99.90;;;;;;5013290;28;20072;-88
2023/02/20 02:08:52;;;;;;;2.70;1.40;;;7.40;99.90;;;;;;5014611;28;20030;-87
2023/02/20 02:11:21;;;;;;;3.72;2.30;;;7.40;99.90;;;;;;5018328;28;20026;-86
2023/02/20 02:13:47;;;;;;;1.70;1.30;;;7.40;99.90;;;;;;5017932;28;20096;-88
2023/02/20 02:16:16;;;;;;;3.65;2.10;;;7.40;99.90;;;;;;5012366;28;20026;-87
2023/02/20 02:18:57;;;;;;;;;;;7.40;99.90;;;;;;5012166;28;20036;-87
2023/02/20 02:21:46;;;;;;;2.90;1.95;;;7.40;99.90;;;;;;5015828;28;19914;-87
2023/02/20 02:24:43;;;;;;;1.85;1.67;;;7.40;99.90;;;;;;5013503;28;20651;-87
2023/02/20 02:27:49;;;;;;;4.93;2.00;;;7.40;99.90;;;;;;5012342;28;20068;-86
2023/02/20 02:30:47;;;;;;;3.20;2.17;;;7.40;99.90;;;;;;5028024;28;20545;-86
2023/02/20 02:33:46;;;;;;;5.28;2.30;;;7.30;99.90;;;;;;5013826;28;20030;-88
2023/02/20 02:36:42;;;;;;;2.30;1.05;;;7.30;99.90;;;;;;5013685;28;20046;-87
2023/02/20 02:39:20;;;;;;;2.72;1.17;;;7.30;99.90;;;;;;5014221;28;20045;-87
2023/02/20 02:42:01;;;;;;;3.63;2.30;;;7.30;99.90;;;;;;5012763;28;20077;-87
2023/02/20 02:44:42;;;;;;;3.55;2.20;;;7.20;99.90;;;;;;5013145;28;20114;-87
2023/02/20 02:47:24;;;;;;;3.40;2.70;;;7.20;99.90;;;;;;5011194;28;20088;-86
2023/02/20 02:50:11;;;;;;;2.50;1.42;;;7.20;99.90;;;;;;5012630;28;20128;-87
2023/02/20 02:52:49;;;;;;;4.18;1.80;;;7.20;99.90;;;;;;5014530;28;20077;-87
2023/02/20 02:55:27;;;;;;;1.98;1.77;;;7.20;99.90;;;;;;5013868;28;20053;-87
2023/02/20 02:57:56;;;;;;;3.17;1.80;;;7.20;99.90;;;;;;5013147;28;20037;-87
2023/02/20 03:00:37;;;;;;;4.70;2.25;;;7.10;99.90;;;;;;5001070;28;20060;-86
2023/02/20 03:03:19;;;;;;;4.03;1.80;;;7.10;99.90;;;;;;5006635;28;20038;-87
2023/02/20 03:05:52;;;;;;;2.58;1.50;;;7.10;99.90;;;;;;5012540;28;20125;-87
2023/02/20 03:08:33;;;;;;;4.22;1.95;;;7.00;99.90;;;;;;5013353;28;20034;-87
2023/02/20 03:11:08;;;;;;;2.58;1.58;;;7.00;99.90;;;;;;5010808;28;20101;-86
2023/02/20 03:17:00;;;;;;;1.52;1.35;;;6.90;99.90;;;;;;5006703;28;20040;-87
2023/02/20 03:19:39;;;;;;;5.10;1.98;;;6.90;99.90;;;;;;5009465;28;20462;-87
2023/02/20 03:22:22;;;;;;;1.85;1.40;;;6.90;99.90;;;;;;5015547;28;20029;-87
2023/02/20 03:24:55;;;;;;;3.53;2.00;;;6.90;99.90;;;;;;5014082;28;20064;-86
2023/02/20 03:27:37;;;;;;;4.68;2.05;;;6.90;99.90;;;;;;5011181;28;20033;-87
2023/02/20 03:45:08;;;;;;;3.25;2.13;;;6.60;99.90;;;;;;5010992;28;20096;-87
2023/02/20 03:47:38;;;;;;;2.25;1.60;;;6.60;99.90;;;;;;5013766;28;20034;-86
2023/02/20 03:52:56;;;;;;;3.70;2.28;;;6.50;99.90;;;;;;5012563;28;20087;-87
2023/02/20 03:55:23;;;;;;;2.85;2.00;;;6.40;99.90;;;;;;5009771;28;20061;-86
2023/02/20 03:57:54;;;;;;;3.58;2.70;;;6.40;99.90;;;;;;5008585;28;20056;-86
2023/02/20 04:04:02;;;;;;;5.45;1.63;;;6.40;99.90;;;;;;5020769;28;20038;-86
2023/02/20 04:06:34;;;;;;;5.20;2.15;;;6.30;99.90;;;;;;5017512;28;20042;-87
2023/02/20 04:09:18;;;;;;;2.28;2.08;;;6.30;99.90;;;;;;5010945;28;20030;-86
2023/02/20 04:11:59;;;;;;;3.33;2.03;;;6.20;99.90;;;;;;5011834;28;20038;-86
2023/02/20 04:14:28;;;;;;;4.40;2.10;;;6.20;99.90;;;;;;5009920;28;20036;-86
2023/02/20 04:17:10;;;;;;;2.85;2.25;;;6.20;99.90;;;;;;5012047;28;20021;-86
2023/02/20 04:19:36;;;;;;;4.65;2.60;;;6.20;99.90;;;;;;5010123;28;20125;-86
2023/02/20 04:22:05;;;;;;;1.90;1.73;;;6.10;99.90;;;;;;5010933;28;20497;-87
2023/02/20 04:24:49;;;;;;;4.93;2.30;;;6.10;99.90;;;;;;5010764;28;20048;-87
2023/02/20 04:27:15;;;;;;;4.68;1.92;;;6.10;99.90;;;;;;5008553;28;20037;-86
2023/02/20 04:29:41;;;;;;;3.90;2.08;;;6.00;99.90;;;;;;5011545;28;20034;-87
2023/02/20 04:33:05;;;;;;;1.88;1.73;;;6.00;99.90;;;;;;5012401;28;20046;-87
2023/02/20 04:35:33;;;;;;;3.22;1.92;;;6.00;99.90;;;;;;5007511;28;20112;-87
2023/02/20 04:38:01;;;;;;;4.38;2.13;;;5.90;99.90;;;;;;5016444;28;20022;-86
2023/02/20 04:40:32;;;;;;;3.35;1.88;;;5.90;99.90;;;;;;5016300;28;20034;-86
2023/02/20 04:43:00;;;;;;;2.78;1.90;;;5.80;99.90;;;;;;5014841;28;20029;-87
2023/02/20 04:45:29;;;;;;;3.17;2.08;;;5.80;99.90;;;;;;5019393;28;20034;-87
2023/02/20 04:47:54;;;;;;;4.72;1.92;;;5.80;99.90;;;;;;5018169;28;20030;-88
2023/02/20 04:50:30;;;;;;;2.10;1.83;;;5.70;99.90;;;;;;5014099;28;20168;-86
2023/02/20 04:52:56;;;;;;;1.92;1.80;;;5.70;99.90;;;;;;5011628;28;20382;-86
2023/02/20 04:55:26;;;;;;;4.10;2.40;;;5.60;99.90;;;;;;5014284;28;20033;-86
2023/02/20 04:57:56;;;;;;;4.25;1.90;;;5.60;99.90;;;;;;5017726;28;20119;-87
2023/02/20 05:00:24;;;;;;;4.40;2.50;;;5.60;99.90;;;;;;5013482;28;20094;-87
2023/02/20 05:03:07;;;;;;;3.50;2.47;;;5.50;99.90;;;;;;5013658;28;20026;-87
2023/02/20 05:05:33;;;;;;;3.15;2.35;;;5.50;99.90;;;;;;5016237;28;20037;-87
2023/02/20 05:08:04;;;;;;;5.20;2.00;;;5.50;99.90;;;;;;5013970;28;20053;-87
2023/02/20 05:10:31;;;;;;;6.90;2.65;;;5.40;99.90;;;;;;5014025;28;20031;-87
2023/02/20 05:13:00;;;;;;;2.40;2.20;;;5.40;99.90;;;;;;5013169;28;20501;-86
2023/02/20 05:15:29;;;;;;;3.42;2.15;;;5.40;99.90;;;;;;5015565;28;20025;-86
2023/02/20 05:17:57;;;;;;;2.88;1.92;;;5.40;99.90;;;;;;5013197;28;21420;-87
2023/02/20 05:22:17;;;;;;;3.67;2.58;;;5.30;99.90;;;;;;5015278;28;20022;-86
2023/02/20 05:23:09;;;;;;;1.90;1.48;;;5.40;99.90;;;;;;5012852;28;20056;-88
2023/02/20 05:25:38;;;;;;;3.92;2.17;;;5.30;99.90;;;;;;5014649;28;20486;-87
2023/02/20 05:28:04;;;;;;;1.67;1.58;;;5.30;99.90;;;;;;5009921;28;20030;-86
2023/02/20 05:30:31;;;;;;;6.25;2.60;;;5.30;99.90;;;;;;5003050;28;20045;-87
2023/02/20 05:32:57;;;;;;;2.33;2.10;;;5.30;99.90;;;;;;5006913;28;20394;-87
2023/02/20 05:35:26;;;;;;;3.25;2.25;;;5.30;99.90;;;;;;5012514;28;20045;-87
2023/02/20 05:37:51;;;;;;;2.92;2.45;;;5.40;99.90;;;;;;5012869;28;20038;-87
2023/02/20 05:40:17;;;;;;;4.00;2.40;;;5.40;99.90;;;;;;5014510;28;20066;-88
2023/02/20 05:42:43;;;;;;;3.65;2.22;;;5.40;99.90;;;;;;5012083;28;20040;-87
2023/02/20 05:45:11;;;;;;;4.72;2.22;;;5.30;99.90;;;;;;5011673;28;20043;-87
2023/02/20 05:47:39;;;;;;;2.38;2.17;;;5.30;99.90;;;;;;5020439;28;20034;-86
2023/02/20 05:50:05;;;;;;;;;;;5.30;99.90;;;;;;5008249;28;20096;-87
2023/02/20 05:52:39;;;;;;;3.60;2.10;;;5.20;99.90;;;;;;5016265;28;19906;-87
2023/02/20 05:55:07;;;;;;;2.70;2.30;;;5.30;99.90;;;;;;5015211;28;20074;-87
2023/02/20 05:57:35;;;;;;;;;;;5.20;99.90;;;;;;5018202;28;20041;-87
2023/02/20 06:00:01;;;;;;;2.80;1.52;;;5.20;99.90;;;;;;5019120;28;20894;-88
2023/02/20 06:02:32;;;;;;;4.40;2.42;;;5.20;99.90;;;;;;5014454;28;20042;-87
2023/02/20 06:04:59;;;;;;;3.67;2.55;;;5.20;99.90;;;;;;5014205;28;20651;-87
2023/02/20 06:07:25;;;;;;;4.65;2.42;;;5.10;99.90;;;;;;5010661;28;20061;-88
2023/02/20 06:09:50;;;;;;;2.88;2.28;;;5.10;99.90;;;;;;5015291;28;20042;-88
2023/02/20 06:12:16;;;;;;;2.75;2.40;;;5.10;99.90;;;;;;5014790;28;20097;-87
2023/02/20 06:14:44;;;;;;;3.72;2.38;;;5.10;99.90;;;;;;5012122;28;20042;-87
2023/02/20 06:17:20;;;;;;;4.40;2.58;;;5.10;99.90;;;;;;5012111;28;20097;-88
2023/02/20 06:19:49;;;;;;;5.63;2.60;;;5.10;99.90;;;;;;5009707;28;20077;-90
2023/02/20 06:22:16;;;;;;;2.67;2.30;;;5.10;99.90;;;;;;5011235;28;20032;-87
2023/02/20 06:24:52;;;;;;;5.32;2.63;;;5.10;99.90;;;;;;5015137;28;20030;-86
2023/02/20 06:27:18;;;;;;;3.90;2.65;;;5.10;99.90;;;;;;5019734;28;20065;-87
2023/02/20 06:29:46;;;;;;;3.08;2.25;;;5.10;99.90;;;;;;5011765;28;20045;-86
2023/02/20 06:32:14;;;;;;;;;;;5.10;99.90;;;;;;5008602;28;20105;-87
2023/02/20 06:34:42;;;;;;;3.90;2.70;;;5.10;99.90;;;;;;5010542;28;19960;-87
2023/02/20 06:37:08;;;;;;;2.77;1.43;;;5.10;99.90;;;;;;5001456;28;20038;-86
2023/02/20 06:39:34;;;;;;;3.83;2.60;;;5.10;99.90;;;;;;5009478;28;20080;-88
2023/02/20 06:42:00;;;;;;;2.13;1.95;;;5.00;99.90;;;;;;5013147;28;20025;-87
2023/02/20 06:44:29;;;;;;;3.72;2.40;;;5.00;99.90;;;;;;5010904;28;20037;-86
2023/02/20 06:46:55;;;;;;;7.35;3.05;;;5.00;99.90;;;;;;5010410;28;20058;-87
2023/02/20 06:49:21;;;;;;;4.20;2.70;;;5.00;99.90;;;;;;5013950;28;20042;-87
2023/02/20 06:51:47;;;;;;;3.40;3.10;;;5.00;99.90;;;;;;5014217;28;20496;-88
2023/02/20 06:54:12;;;;;;;5.15;3.10;;;5.00;99.90;;;;;;4994742;28;20041;-87
2023/02/20 06:56:38;;;;;;;4.68;3.20;;;5.00;99.90;;;;;;5013530;28;20060;-89
2023/02/20 06:59:05;;;;;;;3.80;2.22;;;5.10;99.90;;;;;;5018478;28;20093;-90
2023/02/20 07:01:40;;;;;;;4.88;3.00;;;5.10;99.90;;;;;;5011556;28;20129;-91
2023/02/20 07:04:15;;;;;;;4.68;2.75;;;5.10;99.90;;;;;;5014498;28;20034;-91
2023/02/20 07:06:41;;;;;;;2.67;2.47;;;5.10;99.90;;;;;;5017936;28;20030;-88
2023/02/20 07:09:07;;;;;;;3.58;2.45;;;5.10;99.90;;;;;;5012587;28;20032;-88
2023/02/20 07:11:32;;;;;;;4.45;2.50;;;5.20;99.90;;;;;;5011491;28;20402;-86
2023/02/20 07:13:58;;;;;;;3.80;2.80;;;5.20;99.90;;;;;;5015540;28;20036;-89
2023/02/20 07:16:24;;;;;;;3.92;2.70;;;5.20;99.90;;;;;;5009079;28;21264;-89
2023/02/20 07:18:49;;;;;;;4.05;2.97;;;5.20;99.90;;;;;;5013475;28;20030;-89
2023/02/20 07:21:15;;;;;;;2.75;2.45;;;5.30;99.90;;;;;;5007302;28;20041;-87
2023/02/20 07:23:43;;;;;;;4.68;3.42;;;5.20;99.90;;;;;;5015469;28;20036;-87
2023/02/20 07:26:17;;;;;;;3.25;2.33;;;5.20;99.90;;;;;;5025424;28;20045;-90
2023/02/20 07:28:43;;;;;;;4.28;2.40;;;5.30;99.90;;;;;;5012628;28;20066;-88
2023/02/20 07:31:08;;;;;;;3.22;2.30;;;5.30;99.90;;;;;;5006257;28;20049;-89
2023/02/20 07:33:34;;;;;;;4.78;2.67;;;5.40;99.90;;;;;;5016173;28;20048;-88
2023/02/20 07:36:00;;;;;;;2.47;2.20;;;5.40;99.90;;;;;;5017405;28;20084;-88
2023/02/20 07:38:25;;;;;;;5.90;3.05;;;5.50;99.90;;;;;;5013238;28;20030;-89
2023/02/20 07:40:51;;;;;;;3.25;2.28;;;5.50;99.90;;;;;;5009751;28;20029;-88
2023/02/20 07:43:16;;;;;;;3.53;2.47;;;5.50;99.90;;;;;;5010676;28;20045;-88
2023/02/20 07:45:42;;;;;;;3.55;2.15;;;5.50;99.90;;;;;;5013832;28;20529;-88
2023/02/20 07:48:07;;;;;;;4.07;1.85;;;5.50;99.90;;;;;;5021915;28;20038;-88
2023/02/20 07:50:33;;;;;;;4.43;3.08;;;5.60;99.90;;;;;;5009863;28;20626;-88
2023/02/20 07:52:59;;;;;;;4.60;2.65;;;5.70;99.90;;;;;;5009677;28;20029;-88
2023/02/20 07:55:25;;;;;;;2.55;2.17;;;5.70;99.90;;;;;;5014395;28;20086;-89
2023/02/20 07:57:53;;;;;;;1.85;1.70;;;5.70;99.90;;;;;;5015492;28;20049;-89
2023/02/20 08:00:20;;;;;;;2.08;1.92;;;5.90;99.90;;;;;;5011379;28;20026;-88
2023/02/20 08:02:46;;;;;;;2.35;2.17;;;6.00;99.90;;;;;;5014809;28;20033;-88
2023/02/20 08:05:11;;;;;;;4.18;2.33;;;6.10;99.90;;;;;;5014141;28;20092;-88
2023/02/20 08:07:38;;;;;;;8.57;2.55;;;6.20;99.90;;;;;;5011720;28;20030;-89
2023/02/20 08:10:04;;;;;;;2.33;2.13;;;6.30;99.90;;;;;;5014162;28;20776;-89
2023/02/20 08:12:30;;;;;;;3.22;1.98;;;6.40;99.90;;;;;;5013197;28;20107;-88
2023/02/20 08:14:56;;;;;;;2.80;2.10;;;6.50;99.90;;;;;;5008263;28;20045;-89
2023/02/20 08:17:21;;;;;;;4.90;2.28;;;6.60;99.90;;;;;;5013269;28;20082;-87
2023/02/20 08:19:47;;;;;;;3.63;2.13;;;6.60;99.90;;;;;;5007011;28;20042;-87
2023/02/20 08:22:12;;;;;;;6.43;2.13;;;6.70;99.90;;;;;;5010713;28;20041;-86
2023/02/20 08:24:38;;;;;;;4.05;2.20;;;6.80;99.90;;;;;;5009130;28;20025;-87
2023/02/20 08:27:04;;;;;;;3.20;2.45;;;6.80;99.90;;;;;;5012639;28;20044;-87
2023/02/20 08:29:29;;;;;;;4.85;2.13;;;6.90;99.90;;;;;;5009811;28;20033;-88
2023/02/20 08:31:55;;;;;;;6.10;2.58;;;6.90;99.90;;;;;;5018570;28;20057;-88
2023/02/20 08:34:20;;;;;;;2.60;2.40;;;7.10;99.90;;;;;;5010096;28;20026;-84
2023/02/20 08:36:46;;;;;;;3.33;2.35;;;7.20;99.90;;;;;;5008858;28;20554;-84
2023/02/20 08:39:12;;;;;;;2.78;1.85;;;7.30;99.90;;;;;;5008733;28;20041;-86
2023/02/20 08:41:42;;;;;;;6.82;1.63;;;7.40;99.90;;;;;;5010798;28;20049;-86
2023/02/20 08:44:08;;;;;;;1.88;1.70;;;7.50;99.90;;;;;;5011547;28;20438;-88
2023/02/20 08:46:33;;;;;;;2.08;1.73;;;7.60;99.90;;;;;;5012789;28;20026;-87
2023/02/20 08:48:59;;;;;;;4.53;1.73;;;7.60;99.90;;;;;;5011640;28;21514;-87
2023/02/20 08:51:25;;;;;;;2.10;1.80;;;7.80;99.90;;;;;;5009230;28;20023;-87
2023/02/20 08:53:51;;;;;;;2.15;1.90;;;7.90;99.90;;;;;;5008037;28;20081;-88
2023/02/20 08:56:18;;;;;;;2.70;2.15;;;7.90;99.90;;;;;;5015675;28;20112;-88
2023/02/20 08:58:44;;;;;;;4.80;2.73;;;8.00;99.90;;;;;;5015803;28;20046;-87
2023/02/20 09:01:09;;;;;;;2.05;1.75;;;8.10;99.90;;;;;;5013592;28;20040;-87
2023/02/20 09:03:37;;;;;;;4.78;2.45;;;8.20;99.90;;;;;;5011511;28;20127;-86
2023/02/20 09:06:04;;;;;;;5.20;2.23;;;8.40;99.90;;;;;;5018591;28;20079;-86
2023/02/20 09:08:29;;;;;;;3.45;1.88;;;8.50;99.90;;;;;;5015606;28;20310;-85
2023/02/20 09:10:55;;;;;;;3.13;2.13;;;8.50;99.90;;;;;;5002020;28;20667;-86
2023/02/20 09:13:20;;;;;;;6.13;3.47;;;8.60;99.90;;;;;;5007962;28;20030;-86
2023/02/20 09:15:46;;;;;;;3.88;2.83;;;8.60;99.90;;;;;;5009322;28;20092;-86
2023/02/20 09:18:13;;;;;;;3.97;2.40;;;8.60;99.90;;;;;;5008265;28;20464;-86
2023/02/20 09:20:39;;;;;;;3.38;1.75;;;8.60;99.90;;;;;;5008622;28;20019;-85
2023/02/20 09:23:05;;;;;;;3.70;1.77;;;8.70;99.90;;;;;;5011526;28;20033;-85
2023/02/20 09:25:31;;;;;;;3.90;2.25;;;8.80;99.90;;;;;;5013355;28;20077;-85
2023/02/20 09:27:57;;;;;;;4.47;2.38;;;9.10;99.90;;;;;;5014807;28;22166;-85
2023/02/20 09:30:22;;;;;;;3.20;2.53;;;9.30;99.90;;;;;;5011344;28;20089;-85
2023/02/20 09:32:49;;;;;;;4.90;2.08;;;9.30;99.90;;;;;;5010032;28;20243;-86
2023/02/20 09:35:26;;;;;;;2.67;2.00;;;9.50;99.90;;;;;;5010928;28;20061;-86
2023/02/20 09:37:54;;;;;;;2.47;1.83;;;9.50;99.90;;;;;;5007052;28;20049;-85
2023/02/20 09:40:25;;;;;;;6.25;2.47;;;9.50;99.90;;;;;;5012553;28;20289;-85
2023/02/20 09:42:58;;;;;;;4.00;3.00;;;9.60;99.90;;;;;;5012770;28;20042;-85
2023/02/20 09:45:31;;;;;;;1.75;1.15;;;9.60;99.90;;;;;;5014330;28;20038;-85
2023/02/20 09:48:16;;;;;;;1.52;1.42;;;9.80;99.90;;;;;;5013513;28;20115;-86
2023/02/20 09:50:58;;;;;;;2.55;1.92;;;9.80;99.90;;;;;;5017516;28;20026;-85
2023/02/20 09:53:51;;;;;;;4.20;1.70;;;9.90;99.90;;;;;;5014879;28;20657;-85
2023/02/20 09:56:21;;;;;;;1.13;1.02;;;9.90;99.90;;;;;;5003123;28;20034;-85
2023/02/20 09:59:11;;;;;;;3.13;1.50;;;9.70;99.90;;;;;;5014854;28;20021;-85
2023/02/20 10:01:42;;;;;;;5.95;1.98;;;9.60;99.90;;;;;;5018039;28;20053;-86
2023/02/20 10:04:16;;;;;;;2.17;1.60;;;9.50;99.90;;;;;;5021651;28;20034;-85
2023/02/20 10:06:45;;;;;;;3.17;1.92;;;9.80;99.90;;;;;;5025262;28;20044;-85
2023/02/20 10:09:14;;;;;;;4.18;2.20;;;9.80;99.90;;;;;;5017050;28;20026;-85
2023/02/20 10:12:04;;;;;;;2.70;2.22;;;10.10;99.90;;;;;;5012794;28;20066;-85
2023/02/20 10:14:38;;;;;;;2.83;1.77;;;10.30;99.90;;;;;;5007074;28;20061;-85
2023/02/20 10:17:26;;;;;;;1.73;1.50;;;10.40;99.90;;;;;;5010982;28;20034;-85
2023/02/20 10:20:08;;;;;;;2.60;2.25;;;10.60;99.90;;;;;;5012475;28;20033;-85
2023/02/20 10:22:43;;;;;;;3.08;1.80;;;10.60;99.90;;;;;;5010193;28;20037;-85
2023/02/20 10:25:09;;;;;;;2.22;2.00;;;10.60;99.90;;;;;;5008499;28;20029;-85
2023/02/20 10:28:01;;;;;;;2.65;2.22;;;10.70;99.90;;;;;;5012162;28;20041;-85
2023/02/20 10:30:41;;;;;;;2.72;1.95;;;10.70;99.90;;;;;;5009359;28;20088;-85
2023/02/20 10:33:30;;;;;;;4.28;2.17;;;10.60;99.90;;;;;;5011364;28;20039;-85
2023/02/20 10:36:11;;;;;;;3.22;1.83;;;10.80;99.90;;;;;;5012421;28;20041;-85
2023/02/20 10:38:50;;;;;;;2.60;1.90;;;10.90;99.90;;;;;;5010717;28;20026;-85
2023/02/20 10:41:30;;;;;;;6.82;1.90;;;11.00;99.70;;;;;;5011805;28;20038;-86
2023/02/20 10:44:04;;;;;;;2.88;1.80;;;11.00;99.90;;;;;;5010150;28;20506;-85
2023/02/20 10:46:59;;;;;;;1.90;1.75;;;11.10;99.90;;;;;;5009517;28;20049;-85
2023/02/20 10:49:43;;;;;;;2.72;1.90;;;11.10;98.60;;;;;;5009942;28;20061;-85
2023/02/20 10:52:13;;;;;;;1.88;1.13;;;11.10;99.10;;;;;;5011811;28;20481;-85
2023/02/20 10:55:00;;;;;;;3.17;2.03;;;11.10;98.40;;;;;;5010004;28;20033;-85
2023/02/20 10:57:42;;;;;;;1.60;1.15;;;11.10;98.00;;;;;;5012187;28;20029;-85
2023/02/20 11:00:19;;;;;;;4.10;1.77;;;11.10;99.70;;;;;;5010185;28;20037;-86
2023/02/20 11:02:56;;;;;;;1.40;1.30;;;11.40;99.90;;;;;;5001311;28;20045;-86
2023/02/20 11:05:25;;;;;;;3.28;1.83;;;11.40;99.90;;;;;;5010377;28;20069;-85
2023/02/20 11:07:51;;;;;;;1.38;1.20;;;11.60;99.90;;;;;;5009903;28;20037;-86
2023/02/20 11:10:18;;;;;;;3.75;1.48;;;11.70;96.90;;;;;;5010679;28;20044;-85
2023/02/20 11:12:50;;;;;;;1.83;1.58;;;11.70;98.90;;;;;;5011428;28;20046;-85
2023/02/20 11:15:19;;;;;;;1.48;1.38;;;11.60;94.10;;;;;;5009660;28;20034;-84
2023/02/20 11:17:49;;;;;;;2.15;1.83;;;11.30;95.30;;;;;;5012322;28;20032;-86
2023/02/20 11:20:45;;;;;;;1.88;1.17;;;11.50;93.00;;;;;;5008447;28;20033;-85
2023/02/20 11:23:42;;;;;;;2.40;1.45;;;11.60;95.80;;;;;;5010313;28;20037;-85
2023/02/20 11:26:32;;;;;;;1.10;0.95;;;11.60;96.20;;;;;;4999227;28;20037;-85
2023/02/20 11:29:09;;;;;;;3.22;1.58;;;11.70;96.40;;;;;;5009659;28;20052;-85
2023/02/20 11:31:36;;;;;;;5.15;1.52;;;11.80;97.10;;;;;;5011314;28;20045;-85
2023/02/20 11:34:03;;;;;;;2.63;1.13;;;12.00;92.30;;;;;;5012136;28;20038;-85
2023/02/20 11:36:44;;;;;;;2.55;1.40;;;12.20;93.30;;;;;;5015081;28;20735;-86
2023/02/20 11:39:28;;;;;;;1.98;1.50;;;12.10;93.90;;;;;;5011809;28;20072;-85
2023/02/20 11:42:16;;;;;;;1.10;1.10;;;12.10;92.90;;;;;;5019307;28;20048;-85
2023/02/20 11:44:42;;;;;;;2.47;1.10;;;12.10;90.50;;;;;;5006398;28;20053;-85
2023/02/20 11:47:20;;;;;;;2.13;1.10;;;12.10;89.60;;;;;;5009024;28;20048;-85
2023/02/20 11:49:46;;;;;;;1.75;1.58;;;12.10;92.50;;;;;;5008877;28;20030;-85
2023/02/20 11:52:20;;;;;;;2.60;1.10;;;12.30;88.30;;;;;;5008631;28;20045;-85
2023/02/20 11:55:07;;;;;;;1.00;1.00;;;12.40;92.70;;;;;;5009288;28;20025;-85
2023/02/20 11:57:37;;;;;;;1.55;0.90;;;12.50;92.30;;;;;;5009283;28;20029;-85
2023/02/20 12:00:08;;;;;;;3.78;1.30;;;12.70;79.90;;;;;;5007997;28;20533;-85
2023/02/20 12:02:34;;;;;;;2.55;0.90;;;12.60;84.20;;;;;;5010725;28;20038;-87
2023/02/20 12:05:12;;;;;;;2.38;1.42;;;12.70;84.20;;;;;;5013212;28;20394;-89
2023/02/20 12:07:39;;;;;;;1.30;1.05;;;12.60;78.10;;;;;;5014331;28;20033;-89
2023/02/20 12:10:41;;;;;;;2.30;1.45;;;12.70;84.20;;;;;;5012232;28;20026;-89
2023/02/20 12:13:12;;;;;;;1.52;0.90;;;12.70;75.60;;;;;;5014044;28;20514;-87
2023/02/20 12:15:38;;;;;;;2.85;1.25;;;12.90;91.20;;;;;;5013155;28;20023;-87
2023/02/20 12:18:26;;;;;;;1.13;0.88;;;12.90;82.30;;;;;;5013565;28;20030;-88
2023/02/20 12:21:28;;;;;;;1.63;1.52;;;12.90;88.40;;;;;;5012600;28;20040;-88
2023/02/20 12:24:16;;;;;;;1.10;1.00;;;12.70;81.30;;;;;;5008519;28;20030;-88
2023/02/20 12:26:59;;;;;;;4.95;1.50;;;12.80;85.70;;;;;;5013631;28;20575;-88
2023/02/20 12:30:23;;;;;;;1.40;1.30;;;13.00;91.50;;;;;;5009313;28;20030;-87
2023/02/20 12:33:10;;;;;;;1.65;1.05;;;13.10;84.80;;;;;;5004130;28;21854;-86
2023/02/20 12:35:47;;;;;;;1.10;1.00;;;13.20;82.00;;;;;;5011391;28;20049;-89
2023/02/20 12:38:34;;;;;;;1.60;1.35;;;13.10;83.30;;;;;;5014908;28;20045;-87
2023/02/20 12:41:27;;;;;;;1.27;1.15;;;13.20;87.30;;;;;;5008559;28;20030;-87
2023/02/20 12:44:16;;;;;;;2.03;1.30;;;13.20;85.70;;;;;;5006376;28;20054;-88
2023/02/20 12:47:27;;;;;;;0.70;0.70;;;13.20;82.10;;;;;;5009758;28;20050;-87
2023/02/20 12:50:30;;;;;;;1.45;1.00;;;13.20;89.60;;;;;;5012033;28;20048;-87
2023/02/20 12:53:42;;;;;;;1.80;1.10;;;13.30;88.70;;;;;;5013669;28;20137;-87
2023/02/20 12:56:16;;;;;;;1.00;1.00;;;13.50;80.40;;;;;;5020701;28;20088;-87
2023/02/20 12:59:11;;;;;;;1.30;1.20;;;13.60;77.50;;;;;;5019636;28;20113;-87
2023/02/20 13:01:37;;;;;;;4.95;1.60;;;13.40;77.10;;;;;;5025569;28;20034;-87
2023/02/20 13:04:09;;;;;;;0.98;0.98;;;13.30;82.00;;;;;;5021451;28;20033;-88
2023/02/20 13:07:02;;;;;;;2.78;1.50;;;13.40;78.20;;;;;;5014601;28;20038;-87
2023/02/20 13:09:53;;;;;;;2.30;1.20;;;13.50;81.20;;;;;;5011760;28;20030;-88
2023/02/20 13:12:20;;;;;;;1.30;1.20;;;13.60;81.70;;;;;;5007601;28;20033;-88
2023/02/20 13:15:01;;;;;;;1.38;1.13;;;13.70;79.80;;;;;;5017962;28;20474;-87
2023/02/20 13:17:38;;;;;;;1.70;1.33;;;13.60;80.80;;;;;;5014318;28;20025;-87
2023/02/20 13:20:34;;;;;;;3.08;1.27;;;13.50;80.30;;;;;;5018066;28;20038;-88
2023/02/20 13:23:25;;;;;;;1.95;1.13;;;13.60;88.20;;;;;;5021506;28;20045;-88
2023/02/20 13:25:52;;;;;;;2.95;1.20;;;13.60;86.80;;;;;;5014510;28;20034;-86
2023/02/20 13:28:41;;;;;;;5.15;1.55;;;13.70;90.50;;;;;;5001927;28;20037;-86
2023/02/20 13:31:42;;;;;;;0.98;0.95;;;13.70;70.90;;;;;;5009711;28;20045;-87
2023/02/20 13:34:07;;;;;;;1.35;0.98;;;13.70;75.60;;;;;;5020223;28;20109;-87
2023/02/20 13:36:41;;;;;;;1.10;1.00;;;13.60;72.60;;;;;;5013655;28;20066;-88
2023/02/20 13:39:22;;;;;;;1.20;0.77;;;13.70;83.30;;;;;;5014633;28;20030;-87
2023/02/20 13:41:53;;;;;;;0.90;0.90;;;13.80;85.30;;;;;;5009247;28;20042;-87
2023/02/20 13:44:37;;;;;;;1.27;1.17;;;13.80;77.20;;;;;;5015499;28;20104;-88
2023/02/20 13:47:23;;;;;;;0.75;0.75;;;13.90;72.50;;;;;;5020985;28;20058;-91
2023/02/20 13:49:50;;;;;;;3.28;0.95;;;13.90;78.20;;;;;;5024697;28;20033;-89